sensor_id;sensor_type;location;lat;lon;timestamp;pressure;altitude;pressure_sealevel;temperature;humidity
46534;BME280;32260;52.008;4.752;2023-05-24T00:01:43;102612.25;;;13.01;57.29
46534;BME280;32260;52.008;4.752;2023-05-24T00:04:09;102609.59;;;12.98;57.53
46534;BME280;32260;52.008;4.752;2023-05-24T00:06:36;102601.59;;;12.94;57.07
46534;BME280;32260;52.008;4.752;2023-05-24T00:09:03;102600.75;;;12.92;56.56
46534;BME280;32260;52.008;4.752;2023-05-24T00:11:29;102599.84;;;12.90;57.13
46534;BME280;32260;52.008;4.752;2023-05-24T00:13:55;102601.63;;;12.88;56.98
46534;BME280;32260;52.008;4.752;2023-05-24T00:16:22;102597.19;;;12.86;57.60
46534;BME280;32260;52.008;4.752;2023-05-24T00:18:48;102603.41;;;12.83;57.52
46534;BME280;32260;52.008;4.752;2023-05-24T00:21:14;102596.31;;;12.79;57.60
46534;BME280;32260;52.008;4.752;2023-05-24T00:23:41;102591.91;;;12.76;57.60
46534;BME280;32260;52.008;4.752;2023-05-24T00:26:09;102592.78;;;12.75;57.30
46534;BME280;32260;52.008;4.752;2023-05-24T00:28:35;102591.00;;;12.73;57.73
46534;BME280;32260;52.008;4.752;2023-05-24T00:31:01;102588.34;;;12.68;57.91
46534;BME280;32260;52.008;4.752;2023-05-24T00:33:27;102592.78;;;12.65;57.30
46534;BME280;32260;52.008;4.752;2023-05-24T00:35:55;102587.50;;;12.60;57.32
46534;BME280;32260;52.008;4.752;2023-05-24T00:38:23;102591.03;;;12.57;56.79
46534;BME280;32260;52.008;4.752;2023-05-24T00:40:50;102592.78;;;12.51;57.74
46534;BME280;32260;52.008;4.752;2023-05-24T00:43:16;102586.59;;;12.45;58.42
46534;BME280;32260;52.008;4.752;2023-05-24T00:45:42;102587.47;;;12.43;57.50
46534;BME280;32260;52.008;4.752;2023-05-24T00:48:09;102582.16;;;12.40;58.19
46534;BME280;32260;52.008;4.752;2023-05-24T00:50:37;102582.16;;;12.40;57.88
46534;BME280;32260;52.008;4.752;2023-05-24T00:53:04;102587.47;;;12.40;58.84
46534;BME280;32260;52.008;4.752;2023-05-24T00:55:33;102585.72;;;12.39;58.77
46534;BME280;32260;52.008;4.752;2023-05-24T00:58:00;102587.47;;;12.37;58.99
46534;BME280;32260;52.008;4.752;2023-05-24T01:00:27;102585.69;;;12.36;58.47
46534;BME280;32260;52.008;4.752;2023-05-24T01:02:54;102583.91;;;12.35;58.49
46534;BME280;32260;52.008;4.752;2023-05-24T01:05:20;102585.69;;;12.36;59.01
46534;BME280;32260;52.008;4.752;2023-05-24T01:08:30;102585.72;;;12.39;59.26
46534;BME280;32260;52.008;4.752;2023-05-24T01:11:10;102571.50;;;12.32;58.51
46534;BME280;32260;52.008;4.752;2023-05-24T01:13:53;102575.06;;;12.33;58.82
46534;BME280;32260;52.008;4.752;2023-05-24T01:16:26;102582.16;;;12.27;58.62
46534;BME280;32260;52.008;4.752;2023-05-24T01:18:59;102583.03;;;12.29;59.17
46534;BME280;32260;52.008;4.752;2023-05-24T01:21:53;102595.47;;;12.34;58.91
46534;BME280;32260;52.008;4.752;2023-05-24T01:27:24;102581.25;;;12.21;59.72
46534;BME280;32260;52.008;4.752;2023-05-24T01:29:52;102587.47;;;12.18;58.98
46534;BME280;32260;52.008;4.752;2023-05-24T01:32:19;102591.00;;;12.16;59.62
46534;BME280;32260;52.008;4.752;2023-05-24T01:34:45;102585.69;;;12.12;59.44
46534;BME280;32260;52.008;4.752;2023-05-24T01:37:11;102588.31;;;12.11;59.84
46534;BME280;32260;52.008;4.752;2023-05-24T01:39:37;102580.34;;;12.09;58.99
46534;BME280;32260;52.008;4.752;2023-05-24T01:45:03;102587.47;;;12.15;59.22
46534;BME280;32260;52.008;4.752;2023-05-24T01:47:55;102591.00;;;12.17;59.19
46534;BME280;32260;52.008;4.752;2023-05-24T01:50:31;102591.88;;;12.14;58.96
46534;BME280;32260;52.008;4.752;2023-05-24T01:53:03;102583.00;;;12.11;60.14
46534;BME280;32260;52.008;4.752;2023-05-24T01:55:32;102575.94;;;12.07;59.41
46534;BME280;32260;52.008;4.752;2023-05-24T01:58:02;102578.59;;;12.04;59.52
46534;BME280;32260;52.008;4.752;2023-05-24T02:00:30;102580.34;;;12.02;60.27
46534;BME280;32260;52.008;4.752;2023-05-24T02:02:58;102577.69;;;11.98;59.98
46534;BME280;32260;52.008;4.752;2023-05-24T02:05:24;102573.25;;;11.96;60.10
46534;BME280;32260;52.008;4.752;2023-05-24T02:07:50;102577.66;;;11.94;59.64
46534;BME280;32260;52.008;4.752;2023-05-24T02:10:16;102571.44;;;11.90;60.61
46534;BME280;32260;52.008;4.752;2023-05-24T02:12:42;102567.00;;;11.89;60.32
46534;BME280;32260;52.008;4.752;2023-05-24T02:15:09;102566.09;;;11.87;59.61
46534;BME280;32260;52.008;4.752;2023-05-24T02:17:35;102564.34;;;11.83;59.79
46534;BME280;32260;52.008;4.752;2023-05-24T02:20:02;102568.75;;;11.81;59.17
46534;BME280;32260;52.008;4.752;2023-05-24T02:22:28;102566.97;;;11.80;59.81
46534;BME280;32260;52.008;4.752;2023-05-24T02:24:55;102566.09;;;11.78;60.75
46534;BME280;32260;52.008;4.752;2023-05-24T02:27:21;102562.56;;;11.79;60.39
46534;BME280;32260;52.008;4.752;2023-05-24T02:29:47;102572.28;;;11.78;60.10
46534;BME280;32260;52.008;4.752;2023-05-24T02:32:13;102569.63;;;11.80;60.49
46534;BME280;32260;52.008;4.752;2023-05-24T02:34:39;102565.19;;;11.77;61.13
46534;BME280;32260;52.008;4.752;2023-05-24T02:37:07;102573.19;;;11.79;60.97
46534;BME280;32260;52.008;4.752;2023-05-24T02:39:33;102567.84;;;11.77;61.03
46534;BME280;32260;52.008;4.752;2023-05-24T02:41:59;102564.31;;;11.77;59.85
46534;BME280;32260;52.008;4.752;2023-05-24T02:44:25;102568.72;;;11.75;59.70
46534;BME280;32260;52.008;4.752;2023-05-24T02:46:51;102574.03;;;11.75;60.34
46534;BME280;32260;52.008;4.752;2023-05-24T02:49:18;102583.78;;;11.76;60.68
46534;BME280;32260;52.008;4.752;2023-05-24T02:51:44;102579.38;;;11.76;60.42
46534;BME280;32260;52.008;4.752;2023-05-24T02:54:10;102579.38;;;11.76;61.46
46534;BME280;32260;52.008;4.752;2023-05-24T02:56:36;102583.78;;;11.76;61.26
46534;BME280;32260;52.008;4.752;2023-05-24T02:59:04;102579.34;;;11.75;61.31
46534;BME280;32260;52.008;4.752;2023-05-24T03:01:31;102581.16;;;11.73;60.88
46534;BME280;32260;52.008;4.752;2023-05-24T03:03:58;102589.09;;;11.73;61.26
46534;BME280;32260;52.008;4.752;2023-05-24T03:06:24;102579.38;;;11.70;60.82
46534;BME280;32260;52.008;4.752;2023-05-24T03:08:50;102588.22;;;11.68;61.68
46534;BME280;32260;52.008;4.752;2023-05-24T03:11:17;102586.41;;;11.65;61.76
46534;BME280;32260;52.008;4.752;2023-05-24T03:13:46;102574.91;;;11.64;61.17
46534;BME280;32260;52.008;4.752;2023-05-24T03:16:13;102583.75;;;11.60;61.20
46534;BME280;32260;52.008;4.752;2023-05-24T03:18:39;102583.75;;;11.60;61.30
46534;BME280;32260;52.008;4.752;2023-05-24T03:21:06;102573.13;;;11.60;61.24
46534;BME280;32260;52.008;4.752;2023-05-24T03:23:32;102574.88;;;11.58;60.96
46534;BME280;32260;52.008;4.752;2023-05-24T03:25:58;102568.66;;;11.56;60.53
46534;BME280;32260;52.008;4.752;2023-05-24T03:28:24;102564.28;;;11.55;60.52
46534;BME280;32260;52.008;4.752;2023-05-24T03:30:50;102562.50;;;11.54;61.45
46534;BME280;32260;52.008;4.752;2023-05-24T03:33:16;102562.50;;;11.54;60.87
46534;BME280;32260;52.008;4.752;2023-05-24T03:35:42;102554.53;;;11.53;60.92
46534;BME280;32260;52.008;4.752;2023-05-24T03:38:09;102551.00;;;11.55;60.59
46534;BME280;32260;52.008;4.752;2023-05-24T03:40:35;102564.28;;;11.55;61.17
46534;BME280;32260;52.008;4.752;2023-05-24T03:43:01;102562.47;;;11.57;61.44
46534;BME280;32260;52.008;4.752;2023-05-24T03:45:28;102558.97;;;11.57;62.21
46534;BME280;32260;52.008;4.752;2023-05-24T03:47:54;102560.72;;;11.56;61.83
46534;BME280;32260;52.008;4.752;2023-05-24T03:50:20;102560.72;;;11.56;61.41
46534;BME280;32260;52.008;4.752;2023-05-24T03:52:46;102561.59;;;11.58;60.95
46534;BME280;32260;52.008;4.752;2023-05-24T03:55:13;102561.63;;;11.57;61.83
46534;BME280;32260;52.008;4.752;2023-05-24T03:57:40;102566.00;;;11.56;62.01
46534;BME280;32260;52.008;4.752;2023-05-24T04:00:07;102573.97;;;11.56;62.20
46534;BME280;32260;52.008;4.752;2023-05-24T04:02:34;102569.59;;;11.55;62.42
46534;BME280;32260;52.008;4.752;2023-05-24T04:05:03;102571.31;;;11.55;62.83
46534;BME280;32260;52.008;4.752;2023-05-24T04:07:30;102576.63;;;11.56;61.98
46534;BME280;32260;52.008;4.752;2023-05-24T04:09:59;102581.06;;;11.59;62.26
46534;BME280;32260;52.008;4.752;2023-05-24T04:12:25;102581.97;;;11.61;62.53
46534;BME280;32260;52.008;4.752;2023-05-24T04:14:51;102581.09;;;11.63;62.23
46534;BME280;32260;52.008;4.752;2023-05-24T04:17:17;102580.22;;;11.64;62.53
46534;BME280;32260;52.008;4.752;2023-05-24T04:19:43;102572.25;;;11.66;62.58
46534;BME280;32260;52.008;4.752;2023-05-24T04:22:11;102584.69;;;11.70;61.80
46534;BME280;32260;52.008;4.752;2023-05-24T04:24:37;102581.16;;;11.73;62.66
46534;BME280;32260;52.008;4.752;2023-05-24T04:27:03;102578.47;;;11.76;61.47
46534;BME280;32260;52.008;4.752;2023-05-24T04:29:30;102575.81;;;11.77;61.31
46534;BME280;32260;52.008;4.752;2023-05-24T04:31:58;102577.63;;;11.81;62.03
46534;BME280;32260;52.008;4.752;2023-05-24T04:34:27;102583.84;;;11.85;62.25
46534;BME280;32260;52.008;4.752;2023-05-24T04:36:54;102577.63;;;11.88;62.58
46534;BME280;32260;52.008;4.752;2023-05-24T04:39:20;102579.41;;;11.92;62.81
46534;BME280;32260;52.008;4.752;2023-05-24T04:41:47;102576.81;;;11.96;61.95
46534;BME280;32260;52.008;4.752;2023-05-24T04:44:16;102574.13;;;12.01;61.68
46534;BME280;32260;52.008;4.752;2023-05-24T04:46:42;102565.31;;;12.04;62.15
46534;BME280;32260;52.008;4.752;2023-05-24T04:49:08;102571.50;;;12.06;62.44
46534;BME280;32260;52.008;4.752;2023-05-24T04:51:34;102572.38;;;12.11;61.69
46534;BME280;32260;52.008;4.752;2023-05-24T04:54:04;102573.28;;;12.13;61.54
46534;BME280;32260;52.008;4.752;2023-05-24T04:56:34;102564.41;;;12.17;61.29
46534;BME280;32260;52.008;4.752;2023-05-24T04:59:01;102570.63;;;12.21;62.36
46534;BME280;32260;52.008;4.752;2023-05-24T05:01:27;102563.53;;;12.26;61.03
46534;BME280;32260;52.008;4.752;2023-05-24T05:03:53;102562.69;;;12.30;60.88
46534;BME280;32260;52.008;4.752;2023-05-24T05:06:19;102557.34;;;12.35;60.92
46534;BME280;32260;52.008;4.752;2023-05-24T05:08:45;102560.88;;;12.40;61.82
46534;BME280;32260;52.008;4.752;2023-05-24T05:11:13;102560.00;;;12.47;61.79
46534;BME280;32260;52.008;4.752;2023-05-24T05:13:39;102560.88;;;12.51;61.57
46534;BME280;32260;52.008;4.752;2023-05-24T05:16:06;102561.75;;;12.56;60.84
46534;BME280;32260;52.008;4.752;2023-05-24T05:18:32;102561.75;;;12.62;61.32
46534;BME280;32260;52.008;4.752;2023-05-24T05:20:58;102562.66;;;12.66;61.52
46534;BME280;32260;52.008;4.752;2023-05-24T05:23:24;102569.75;;;12.73;60.91
46534;BME280;32260;52.008;4.752;2023-05-24T05:25:51;102562.63;;;12.78;61.34
46534;BME280;32260;52.008;4.752;2023-05-24T05:28:17;102568.84;;;12.85;60.53
46534;BME280;32260;52.008;4.752;2023-05-24T05:30:43;102573.25;;;12.90;60.85
46534;BME280;32260;52.008;4.752;2023-05-24T05:33:09;102573.25;;;12.97;60.47
46534;BME280;32260;52.008;4.752;2023-05-24T05:35:35;102573.22;;;13.03;60.54
46534;BME280;32260;52.008;4.752;2023-05-24T05:38:01;102577.66;;;13.10;60.87
46534;BME280;32260;52.008;4.752;2023-05-24T05:40:27;102569.66;;;13.16;60.74
46534;BME280;32260;52.008;4.752;2023-05-24T05:42:53;102574.94;;;13.24;61.03
46534;BME280;32260;52.008;4.752;2023-05-24T05:45:19;102582.88;;;13.32;59.94
46534;BME280;32260;52.008;4.752;2023-05-24T05:47:45;102585.56;;;13.38;60.31
46534;BME280;32260;52.008;4.752;2023-05-24T05:50:14;102582.84;;;13.50;60.66
46534;BME280;32260;52.008;4.752;2023-05-24T05:52:41;102583.72;;;13.58;60.37
46534;BME280;32260;52.008;4.752;2023-05-24T05:55:07;102584.56;;;13.68;60.50
46534;BME280;32260;52.008;4.752;2023-05-24T05:57:34;102590.69;;;13.81;60.43
46534;BME280;32260;52.008;4.752;2023-05-24T06:00:00;102588.84;;;13.93;59.69
46534;BME280;32260;52.008;4.752;2023-05-24T06:02:26;102588.81;;;13.99;59.96
46534;BME280;32260;52.008;4.752;2023-05-24T06:04:52;102597.66;;;14.07;59.88
46534;BME280;32260;52.008;4.752;2023-05-24T06:07:18;102593.16;;;14.14;59.79
46534;BME280;32260;52.008;4.752;2023-05-24T06:09:45;102596.66;;;14.22;60.10
46534;BME280;32260;52.008;4.752;2023-05-24T06:12:11;102585.91;;;14.33;59.84
46534;BME280;32260;52.008;4.752;2023-05-24T06:14:37;102583.16;;;14.44;59.77
46534;BME280;32260;52.008;4.752;2023-05-24T06:17:05;102588.38;;;14.56;59.54
46534;BME280;32260;52.008;4.752;2023-05-24T06:19:31;102583.91;;;14.66;59.59
46534;BME280;32260;52.008;4.752;2023-05-24T06:21:58;102586.44;;;14.78;59.27
46534;BME280;32260;52.008;4.752;2023-05-24T06:24:24;102592.59;;;14.85;59.11
46534;BME280;32260;52.008;4.752;2023-05-24T06:26:52;102589.84;;;14.96;58.97
46534;BME280;32260;52.008;4.752;2023-05-24T06:29:18;102588.94;;;14.97;59.12
46534;BME280;32260;52.008;4.752;2023-05-24T06:31:46;102595.03;;;15.08;58.87
46534;BME280;32260;52.008;4.752;2023-05-24T06:34:13;102600.31;;;15.14;58.38
46534;BME280;32260;52.008;4.752;2023-05-24T06:36:45;102594.88;;;15.22;58.25
46534;BME280;32260;52.008;4.752;2023-05-24T06:39:13;102598.41;;;15.26;58.06
46534;BME280;32260;52.008;4.752;2023-05-24T06:41:40;102598.31;;;15.33;58.15
46534;BME280;32260;52.008;4.752;2023-05-24T06:44:08;102601.78;;;15.40;57.81
46534;BME280;32260;52.008;4.752;2023-05-24T06:46:36;102599.09;;;15.43;57.67
46534;BME280;32260;52.008;4.752;2023-05-24T06:49:02;102600.78;;;15.50;57.76
46534;BME280;32260;52.008;4.752;2023-05-24T06:51:29;102598.91;;;15.57;57.34
46534;BME280;32260;52.008;4.752;2023-05-24T06:53:55;102588.09;;;15.65;57.46
46534;BME280;32260;52.008;4.752;2023-05-24T06:56:22;102587.13;;;15.72;57.12
46534;BME280;32260;52.008;4.752;2023-05-24T06:58:48;102588.81;;;15.79;57.32
46534;BME280;32260;52.008;4.752;2023-05-24T07:01:14;102578.94;;;15.88;56.99
46534;BME280;32260;52.008;4.752;2023-05-24T07:03:41;102585.09;;;15.91;56.13
46534;BME280;32260;52.008;4.752;2023-05-24T07:06:07;102577.00;;;15.99;56.22
46534;BME280;32260;52.008;4.752;2023-05-24T07:08:35;102591.13;;;16.06;56.10
46534;BME280;32260;52.008;4.752;2023-05-24T07:11:01;102589.25;;;16.12;55.83
46534;BME280;32260;52.008;4.752;2023-05-24T07:13:28;102586.47;;;16.18;55.97
46534;BME280;32260;52.008;4.752;2023-05-24T07:15:54;102583.78;;;16.22;55.73
46534;BME280;32260;52.008;4.752;2023-05-24T07:18:20;102581.94;;;16.25;55.31
46534;BME280;32260;52.008;4.752;2023-05-24T07:20:46;102578.28;;;16.29;55.68
46534;BME280;32260;52.008;4.752;2023-05-24T07:23:12;102580.91;;;16.34;55.60
46534;BME280;32260;52.008;4.752;2023-05-24T07:25:39;102587.16;;;16.33;54.37
46534;BME280;32260;52.008;4.752;2023-05-24T07:28:05;102599.47;;;16.43;54.32
46534;BME280;32260;52.008;4.752;2023-05-24T07:30:31;102593.06;;;16.52;54.49
46534;BME280;32260;52.008;4.752;2023-05-24T07:32:58;102597.44;;;16.58;54.29
46534;BME280;32260;52.008;4.752;2023-05-24T07:35:24;102597.28;;;16.67;54.48
46534;BME280;32260;52.008;4.752;2023-05-24T07:37:50;102597.13;;;16.76;54.02
46534;BME280;32260;52.008;4.752;2023-05-24T07:40:16;102592.50;;;16.85;53.38
46534;BME280;32260;52.008;4.752;2023-05-24T07:42:42;102594.16;;;16.95;53.84
46534;BME280;32260;52.008;4.752;2023-05-24T07:45:09;102600.28;;;17.00;53.52
46534;BME280;32260;52.008;4.752;2023-05-24T07:47:35;102600.34;;;16.98;53.29
46534;BME280;32260;52.008;4.752;2023-05-24T07:50:02;102600.34;;;16.98;53.11
46534;BME280;32260;52.008;4.752;2023-05-24T07:52:29;102591.44;;;16.96;52.99
46534;BME280;32260;52.008;4.752;2023-05-24T07:54:55;102599.47;;;16.96;53.18
46534;BME280;32260;52.008;4.752;2023-05-24T07:57:21;102598.44;;;17.02;52.38
46534;BME280;32260;52.008;4.752;2023-05-24T07:59:48;102595.63;;;17.11;52.43
46534;BME280;32260;52.008;4.752;2023-05-24T08:02:15;102596.38;;;17.18;52.41
46534;BME280;32260;52.008;4.752;2023-05-24T08:04:42;102595.41;;;17.22;52.27
46534;BME280;32260;52.008;4.752;2023-05-24T08:07:08;102595.25;;;17.30;51.95
46534;BME280;32260;52.008;4.752;2023-05-24T08:09:34;102591.59;;;17.34;51.32
46534;BME280;32260;52.008;4.752;2023-05-24T08:12:04;102587.75;;;17.48;52.02
46534;BME280;32260;52.008;4.752;2023-05-24T08:14:30;102594.75;;;17.55;51.57
46534;BME280;32260;52.008;4.752;2023-05-24T08:16:57;102591.84;;;17.64;51.23
46534;BME280;32260;52.008;4.752;2023-05-24T08:19:26;102587.22;;;17.72;51.12
46534;BME280;32260;52.008;4.752;2023-05-24T08:21:54;102588.84;;;17.79;50.79
46534;BME280;32260;52.008;4.752;2023-05-24T08:24:21;102583.41;;;17.83;50.87
46534;BME280;32260;52.008;4.752;2023-05-24T08:26:47;102585.16;;;17.84;50.47
46534;BME280;32260;52.008;4.752;2023-05-24T08:29:14;102579.84;;;17.81;48.42
46534;BME280;32260;52.008;4.752;2023-05-24T08:31:42;102576.97;;;17.90;50.15
46534;BME280;32260;52.008;4.752;2023-05-24T08:34:09;102580.44;;;17.97;50.44
46534;BME280;32260;52.008;4.752;2023-05-24T08:36:35;102575.91;;;17.99;49.95
46534;BME280;32260;52.008;4.752;2023-05-24T08:39:02;102584.88;;;17.98;49.71
46534;BME280;32260;52.008;4.752;2023-05-24T08:41:29;102579.59;;;17.94;48.65
46534;BME280;32260;52.008;4.752;2023-05-24T08:44:00;102576.88;;;17.96;49.01
46534;BME280;32260;52.008;4.752;2023-05-24T08:46:27;102584.72;;;18.04;48.98
46534;BME280;32260;52.008;4.752;2023-05-24T08:48:54;102580.91;;;18.16;49.12
46534;BME280;32260;52.008;4.752;2023-05-24T08:51:22;102581.47;;;18.29;48.78
46534;BME280;32260;52.008;4.752;2023-05-24T08:53:50;102583.72;;;18.46;48.62
46534;BME280;32260;52.008;4.752;2023-05-24T08:56:17;102582.53;;;18.57;48.32
46534;BME280;32260;52.008;4.752;2023-05-24T08:58:44;102578.75;;;18.65;47.64
46534;BME280;32260;52.008;4.752;2023-05-24T09:01:12;102582.97;;;18.75;48.25
46534;BME280;32260;52.008;4.752;2023-05-24T09:03:40;102581.97;;;18.79;47.54
46534;BME280;32260;52.008;4.752;2023-05-24T09:06:09;102578.34;;;18.80;47.47
46534;BME280;32260;52.008;4.752;2023-05-24T09:08:36;102583.59;;;18.85;47.57
46534;BME280;32260;52.008;4.752;2023-05-24T09:11:05;102578.09;;;18.91;47.20
46534;BME280;32260;52.008;4.752;2023-05-24T09:13:32;102579.75;;;18.95;47.50
46534;BME280;32260;52.008;4.752;2023-05-24T09:16:00;102582.22;;;19.04;47.24
46534;BME280;32260;52.008;4.752;2023-05-24T09:18:27;102585.41;;;19.17;46.55
46534;BME280;32260;52.008;4.752;2023-05-24T09:20:54;102577.00;;;19.30;45.48
46534;BME280;32260;52.008;4.752;2023-05-24T09:23:20;102575.78;;;19.42;45.15
46534;BME280;32260;52.008;4.752;2023-05-24T09:25:47;102579.69;;;19.60;45.93
46534;BME280;32260;52.008;4.752;2023-05-24T09:28:16;102581.16;;;19.70;45.15
46534;BME280;32260;52.008;4.752;2023-05-24T09:30:44;102578.47;;;19.71;45.18
46534;BME280;32260;52.008;4.752;2023-05-24T09:33:11;102569.53;;;19.69;45.38
46534;BME280;32260;52.008;4.752;2023-05-24T09:35:43;102571.00;;;19.80;45.47
46534;BME280;32260;52.008;4.752;2023-05-24T09:38:18;102569.16;;;19.82;44.91
46534;BME280;32260;52.008;4.752;2023-05-24T09:40:44;102567.50;;;19.78;44.96
46534;BME280;32260;52.008;4.752;2023-05-24T09:43:11;102563.00;;;19.78;45.23
46534;BME280;32260;52.008;4.752;2023-05-24T09:45:45;102569.44;;;19.72;45.01
46534;BME280;32260;52.008;4.752;2023-05-24T09:48:12;102555.38;;;19.64;45.07
46534;BME280;32260;52.008;4.752;2023-05-24T09:50:39;102547.38;;;19.61;44.27
46534;BME280;32260;52.008;4.752;2023-05-24T09:53:06;102555.38;;;19.64;44.70
46534;BME280;32260;52.008;4.752;2023-05-24T09:55:36;102547.00;;;19.73;44.69
46534;BME280;32260;52.008;4.752;2023-05-24T09:58:06;102548.63;;;19.79;44.87
46534;BME280;32260;52.008;4.752;2023-05-24T10:00:35;102550.31;;;19.83;44.80
46534;BME280;32260;52.008;4.752;2023-05-24T10:03:04;102544.06;;;19.83;43.05
46534;BME280;32260;52.008;4.752;2023-05-24T10:05:34;102549.34;;;19.86;43.77
46534;BME280;32260;52.008;4.752;2023-05-24T10:08:01;102551.09;;;19.87;43.56
46534;BME280;32260;52.008;4.752;2023-05-24T10:10:31;102550.06;;;19.91;43.50
46534;BME280;32260;52.008;4.752;2023-05-24T10:12:58;102543.56;;;19.98;43.29
46534;BME280;32260;52.008;4.752;2023-05-24T10:15:26;102538.69;;;20.11;44.09
46534;BME280;32260;52.008;4.752;2023-05-24T10:17:53;102540.97;;;20.22;43.72
46534;BME280;32260;52.008;4.752;2023-05-24T10:20:20;102536.22;;;20.30;43.98
46534;BME280;32260;52.008;4.752;2023-05-24T10:22:51;102541.19;;;20.43;43.76
46534;BME280;32260;52.008;4.752;2023-05-24T10:25:22;102544.41;;;20.54;43.53
46534;BME280;32260;52.008;4.752;2023-05-24T10:27:57;102542.41;;;20.59;42.90
46534;BME280;32260;52.008;4.752;2023-05-24T10:30:32;102537.97;;;20.58;40.23
46534;BME280;32260;52.008;4.752;2023-05-24T10:33:00;102544.19;;;20.60;42.18
46534;BME280;32260;52.008;4.752;2023-05-24T10:35:27;102542.41;;;20.59;41.48
46534;BME280;32260;52.008;4.752;2023-05-24T10:37:54;102542.34;;;20.61;41.75
46534;BME280;32260;52.008;4.752;2023-05-24T10:40:21;102546.81;;;20.62;42.07
46534;BME280;32260;52.008;4.752;2023-05-24T10:42:52;102546.66;;;20.66;42.14
46534;BME280;32260;52.008;4.752;2023-05-24T10:48:35;102545.81;;;20.91;41.96
46534;BME280;32260;52.008;4.752;2023-05-24T10:50:53;102548.84;;;21.06;41.05
46534;BME280;32260;52.008;4.752;2023-05-24T10:53:22;102538.16;;;21.28;41.81
46534;BME280;32260;52.008;4.752;2023-05-24T11:01:33;102530.22;;;21.47;41.34
46534;BME280;32260;52.008;4.752;2023-05-24T11:04:19;102532.91;;;21.47;41.12
46534;BME280;32260;52.008;4.752;2023-05-24T11:09:22;102536.03;;;21.36;40.74
46534;BME280;32260;52.008;4.752;2023-05-24T11:11:53;102539.75;;;21.33;40.91
46534;BME280;32260;52.008;4.752;2023-05-24T11:14:26;102538.97;;;21.30;39.58
46534;BME280;32260;52.008;4.752;2023-05-24T11:16:52;102532.00;;;21.24;40.81
46534;BME280;32260;52.008;4.752;2023-05-24T11:19:21;102537.50;;;21.21;41.17
46534;BME280;32260;52.008;4.752;2023-05-24T11:21:49;102537.81;;;21.13;40.88
46534;BME280;32260;52.008;4.752;2023-05-24T11:24:16;102542.66;;;21.04;40.38
46534;BME280;32260;52.008;4.752;2023-05-24T11:26:44;102539.22;;;20.98;40.47
46534;BME280;32260;52.008;4.752;2023-05-24T11:29:12;102544.69;;;20.97;40.66
46534;BME280;32260;52.008;4.752;2023-05-24T11:31:47;102540.41;;;20.91;39.65
46534;BME280;32260;52.008;4.752;2023-05-24T11:34:13;102537.88;;;20.87;41.31
46534;BME280;32260;52.008;4.752;2023-05-24T11:36:40;102537.03;;;20.86;41.64
46534;BME280;32260;52.008;4.752;2023-05-24T11:39:07;102540.75;;;20.82;41.19
46534;BME280;32260;52.008;4.752;2023-05-24T11:41:36;102538.16;;;20.79;41.50
46534;BME280;32260;52.008;4.752;2023-05-24T11:44:03;102539.38;;;20.68;41.12
46534;BME280;32260;52.008;4.752;2023-05-24T11:46:30;102541.28;;;20.66;40.83
46534;BME280;32260;52.008;4.752;2023-05-24T11:48:57;102539.63;;;20.62;40.72
46534;BME280;32260;52.008;4.752;2023-05-24T11:51:26;102537.81;;;20.63;41.33
46534;BME280;32260;52.008;4.752;2023-05-24T11:53:52;102541.69;;;20.54;40.79
46534;BME280;32260;52.008;4.752;2023-05-24T11:56:18;102538.09;;;20.55;41.52
46534;BME280;32260;52.008;4.752;2023-05-24T11:58:49;102538.94;;;20.56;41.51
46534;BME280;32260;52.008;4.752;2023-05-24T12:01:26;102533.47;;;20.59;41.13
46534;BME280;32260;52.008;4.752;2023-05-24T12:03:53;102536.19;;;20.57;40.46
46534;BME280;32260;52.008;4.752;2023-05-24T12:06:20;102529.16;;;20.53;40.19
46534;BME280;32260;52.008;4.752;2023-05-24T12:08:47;102533.56;;;20.56;41.57
46534;BME280;32260;52.008;4.752;2023-05-24T12:11:15;102532.50;;;20.60;41.92
46534;BME280;32260;52.008;4.752;2023-05-24T12:13:42;102530.81;;;20.57;40.96
46534;BME280;32260;52.008;4.752;2023-05-24T12:16:10;102534.25;;;20.62;41.68
46534;BME280;32260;52.008;4.752;2023-05-24T12:18:38;102521.81;;;20.58;41.29
46534;BME280;32260;52.008;4.752;2023-05-24T12:21:08;102528.94;;;20.59;41.75
46534;BME280;32260;52.008;4.752;2023-05-24T12:23:36;102527.31;;;20.55;41.93
46534;BME280;32260;52.008;4.752;2023-05-24T12:26:03;102529.16;;;20.53;41.73
46534;BME280;32260;52.008;4.752;2023-05-24T12:28:33;102528.09;;;20.59;41.80
46534;BME280;32260;52.008;4.752;2023-05-24T12:31:02;102526.31;;;20.58;41.95
46534;BME280;32260;52.008;4.752;2023-05-24T12:33:29;102531.50;;;20.64;42.01
46534;BME280;32260;52.008;4.752;2023-05-24T12:35:55;102527.91;;;20.63;41.80
46534;BME280;32260;52.008;4.752;2023-05-24T12:38:23;102530.59;;;20.63;42.21
46534;BME280;32260;52.008;4.752;2023-05-24T12:40:50;102522.56;;;20.62;41.25
46534;BME280;32260;52.008;4.752;2023-05-24T12:43:19;102524.28;;;20.64;41.29
46534;BME280;32260;52.008;4.752;2023-05-24T12:45:46;102525.19;;;20.63;41.09
46534;BME280;32260;52.008;4.752;2023-05-24T12:48:12;102525.78;;;20.73;41.47
46534;BME280;32260;52.008;4.752;2023-05-24T12:50:38;102524.63;;;20.80;41.60
46534;BME280;32260;52.008;4.752;2023-05-24T12:53:04;102524.47;;;20.85;41.56
46534;BME280;32260;52.008;4.752;2023-05-24T12:55:31;102529.50;;;20.94;41.80
46534;BME280;32260;52.008;4.752;2023-05-24T12:57:57;102532.91;;;20.99;41.80
46534;BME280;32260;52.008;4.752;2023-05-24T13:00:28;102531.16;;;20.98;42.23
46534;BME280;32260;52.008;4.752;2023-05-24T13:02:55;102536.44;;;21.01;41.89
46534;BME280;32260;52.008;4.752;2023-05-24T13:05:24;102530.34;;;20.96;41.62
46534;BME280;32260;52.008;4.752;2023-05-24T13:07:52;102536.66;;;20.95;42.11
46534;BME280;32260;52.008;4.752;2023-05-24T13:10:18;102529.66;;;20.91;42.10